Time;durP1;ratioP1;P1;durP2;ratioP2;P2;SDS_P1;SDS_P2;PMS_P1;PMS_P2;Temp;Humidity;BMP_temperature;BMP_pressure;BME280_temperature;BME280_humidity;BME280_pressure;Samples;Min_cycle;Max_cycle;Signal;HPM_P1;HPM_P2
2020/12/22 00:02:18;;;;;;;69.93;42.70;;;9.00;99.90;;;;;;5100950;28;20105;-54
2020/12/22 00:05:23;;;;;;;61.88;41.35;;;9.00;99.90;;;;;;5088142;28;20042;-54
2020/12/22 00:08:27;;;;;;;61.67;41.17;;;9.00;99.90;;;;;;5095734;28;20527;-52
2020/12/22 00:11:31;;;;;;;66.53;42.17;;;9.10;99.90;;;;;;5095101;28;20561;-55
2020/12/22 00:14:55;;;;;;;66.57;43.65;;;9.20;99.90;;;;;;5095254;28;20059;-59
2020/12/22 00:17:59;;;;;;;69.45;44.00;;;9.30;99.90;;;;;;5095779;28;20043;-55
2020/12/22 00:21:04;;;;;;;67.20;45.92;;;9.30;99.90;;;;;;5100607;28;20050;-54
2020/12/22 00:24:08;;;;;;;68.43;43.67;;;9.00;99.90;;;;;;5100308;28;20098;-54
2020/12/22 00:30:36;;;;;;;75.55;46.80;;;8.90;99.90;;;;;;5073831;28;20438;-54
2020/12/22 00:33:40;;;;;;;78.85;49.72;;;8.60;99.90;;;;;;5089750;28;20524;-53
2020/12/22 00:36:46;;;;;;;81.70;52.20;;;8.50;99.90;;;;;;5089076;28;20043;-55
2020/12/22 00:39:50;;;;;;;74.88;50.88;;;8.30;99.90;;;;;;5089510;28;20513;-58
2020/12/22 00:42:54;;;;;;;79.82;52.15;;;8.40;99.90;;;;;;5089037;28;20043;-54
2020/12/22 00:45:58;;;;;;;86.25;53.22;;;8.50;99.90;;;;;;5088946;28;20402;-55
2020/12/22 00:49:03;;;;;;;79.25;50.45;;;8.70;99.90;;;;;;5070327;28;20039;-54
2020/12/22 00:52:07;;;;;;;78.32;50.20;;;8.80;99.90;;;;;;5089428;28;20051;-55
2020/12/22 00:55:11;;;;;;;79.38;49.80;;;8.90;99.90;;;;;;5077332;28;20341;-56
2020/12/22 00:58:17;;;;;;;75.05;48.63;;;8.90;99.90;;;;;;5076339;28;20047;-54
2020/12/22 01:01:23;;;;;;;78.82;51.30;;;8.70;99.90;;;;;;5076597;28;20046;-54
2020/12/22 01:04:28;;;;;;;85.57;54.10;;;8.70;99.90;;;;;;5089174;28;20437;-54
2020/12/22 01:07:32;;;;;;;73.03;49.85;;;8.70;99.90;;;;;;5089110;28;20047;-54
2020/12/22 01:10:36;;;;;;;82.10;52.65;;;8.80;99.90;;;;;;5089517;28;20043;-54
2020/12/22 01:13:40;;;;;;;76.22;47.80;;;8.80;99.90;;;;;;5089173;28;20043;-55
2020/12/22 01:16:44;;;;;;;75.00;48.42;;;8.90;99.90;;;;;;5089223;28;20075;-54
2020/12/22 01:19:47;;;;;;;75.85;49.88;;;8.90;99.90;;;;;;5088926;28;20509;-55
2020/12/22 01:22:51;;;;;;;72.35;48.20;;;9.00;99.90;;;;;;5089625;28;20055;-54
2020/12/22 01:25:55;;;;;;;88.82;54.85;;;9.00;99.90;;;;;;5089479;28;20055;-55
2020/12/22 01:28:59;;;;;;;80.10;53.95;;;8.70;99.90;;;;;;5077767;28;20047;-53
2020/12/22 01:32:04;;;;;;;77.63;53.17;;;8.60;99.90;;;;;;5089153;28;20040;-54
2020/12/22 01:35:09;;;;;;;87.55;55.60;;;8.70;99.90;;;;;;5088963;28;20043;-54
2020/12/22 01:38:12;;;;;;;85.88;55.45;;;8.50;99.90;;;;;;5091796;28;20047;-54
2020/12/22 01:41:18;;;;;;;86.45;56.47;;;8.40;99.90;;;;;;5092733;28;20094;-54
2020/12/22 01:44:22;;;;;;;92.45;59.92;;;8.50;99.90;;;;;;5092508;28;20462;-55
2020/12/22 01:47:27;;;;;;;100.50;65.45;;;8.40;99.90;;;;;;5092275;28;20047;-56
2020/12/22 01:50:31;;;;;;;110.22;72.22;;;8.30;99.90;;;;;;5079643;28;20048;-54
2020/12/22 01:53:35;;;;;;;119.22;77.18;;;8.10;99.90;;;;;;5092615;28;20051;-54
2020/12/22 01:56:39;;;;;;;113.47;73.18;;;8.10;99.90;;;;;;5092230;28;20051;-54
2020/12/22 01:59:43;;;;;;;117.85;75.28;;;8.10;99.90;;;;;;5092281;28;20055;-54
2020/12/22 02:02:48;;;;;;;107.93;71.55;;;8.20;99.90;;;;;;5092321;28;20071;-54
2020/12/22 02:05:51;;;;;;;118.05;74.05;;;8.30;99.90;;;;;;5091895;28;20067;-54
2020/12/22 02:08:57;;;;;;;119.97;79.78;;;8.40;99.90;;;;;;5092333;28;20607;-54
2020/12/22 02:12:03;;;;;;;120.82;80.50;;;8.20;99.90;;;;;;5089890;28;20055;-56
2020/12/22 02:15:07;;;;;;;118.75;78.53;;;8.10;99.90;;;;;;5089379;28;20055;-55
2020/12/22 02:18:12;;;;;;;116.80;77.30;;;8.10;99.90;;;;;;5085872;28;20046;-54
2020/12/22 02:21:17;;;;;;;120.05;78.45;;;8.20;99.90;;;;;;5103739;28;20050;-55
2020/12/22 02:24:21;;;;;;;126.93;79.50;;;8.20;99.90;;;;;;5103319;28;20051;-57
2020/12/22 02:27:25;;;;;;;117.60;75.95;;;8.20;99.90;;;;;;5077716;28;20035;-55
2020/12/22 02:30:29;;;;;;;121.43;79.25;;;8.10;99.90;;;;;;5093313;28;20433;-57
2020/12/22 02:33:33;;;;;;;116.88;78.53;;;8.10;99.90;;;;;;5105708;28;20650;-55
2020/12/22 02:36:37;;;;;;;121.53;78.60;;;8.10;99.90;;;;;;5103208;28;20043;-56
2020/12/22 02:39:41;;;;;;;117.57;76.00;;;8.20;99.90;;;;;;5088596;28;20519;-57
2020/12/22 02:42:45;;;;;;;114.13;74.15;;;8.20;99.90;;;;;;5085400;28;20055;-57
2020/12/22 02:45:49;;;;;;;110.03;71.60;;;8.20;99.90;;;;;;5107797;28;20521;-58
2020/12/22 02:48:53;;;;;;;106.63;65.90;;;8.30;99.90;;;;;;5103805;28;20058;-58
2020/12/22 02:51:58;;;;;;;103.95;67.85;;;8.30;99.90;;;;;;5102691;28;20403;-55
2020/12/22 02:55:03;;;;;;;101.13;65.32;;;8.40;99.90;;;;;;5102108;28;20406;-55
2020/12/22 02:58:07;;;;;;;98.55;65.75;;;8.50;99.90;;;;;;5082852;28;20050;-57
2020/12/22 03:01:11;;;;;;;103.10;69.82;;;8.50;99.90;;;;;;5096658;28;20046;-55
2020/12/22 03:04:17;;;;;;;119.95;76.28;;;8.50;99.90;;;;;;5096288;28;20039;-58
2020/12/22 03:07:21;;;;;;;126.40;83.45;;;8.30;99.90;;;;;;5098527;28;20405;-57
2020/12/22 03:10:25;;;;;;;142.48;87.97;;;8.20;99.90;;;;;;5073600;28;20532;-58
2020/12/22 03:13:29;;;;;;;136.20;86.35;;;8.10;99.90;;;;;;5079864;28;20040;-58
2020/12/22 03:16:33;;;;;;;138.23;87.65;;;8.10;99.90;;;;;;5089922;28;20406;-58
2020/12/22 03:19:40;;;;;;;109.93;74.43;;;8.10;99.90;;;;;;5103911;28;20047;-58
2020/12/22 03:22:45;;;;;;;111.43;74.25;;;8.20;99.90;;;;;;5102700;28;20055;-56
2020/12/22 03:25:49;;;;;;;120.00;74.28;;;8.20;99.90;;;;;;5101354;28;20051;-57
2020/12/22 03:29:05;;;;;;;109.28;71.50;;;8.30;99.90;;;;;;5076294;28;20394;-58
2020/12/22 03:32:10;;;;;;;95.85;63.50;;;8.40;99.90;;;;;;5095307;28;20043;-57
2020/12/22 03:35:14;;;;;;;95.40;63.75;;;8.50;99.90;;;;;;5086126;28;20043;-58
2020/12/22 03:38:18;;;;;;;106.35;72.78;;;8.60;99.90;;;;;;5103941;28;20105;-57
2020/12/22 03:41:22;;;;;;;125.05;80.28;;;8.60;99.90;;;;;;5103361;28;20050;-55
2020/12/22 03:44:27;;;;;;;126.15;82.60;;;8.30;99.90;;;;;;5103286;28;20050;-56
2020/12/22 03:47:31;;;;;;;242.55;87.93;;;8.20;99.90;;;;;;5102238;28;20046;-58
2020/12/22 03:50:36;;;;;;;367.20;98.80;;;8.10;99.90;;;;;;5101056;28;20544;-54
2020/12/22 03:53:40;;;;;;;717.30;122.38;;;8.10;99.90;;;;;;5082925;28;20055;-57
2020/12/22 03:56:44;;;;;;;145.93;90.97;;;7.90;99.90;;;;;;5095879;28;20121;-58
2020/12/22 03:59:47;;;;;;;143.07;90.97;;;7.90;99.90;;;;;;5094825;28;20043;-55
2020/12/22 04:02:51;;;;;;;176.18;91.50;;;8.00;99.90;;;;;;5097818;28;20047;-55
2020/12/22 04:05:55;;;;;;;157.50;91.40;;;8.10;99.90;;;;;;5099204;28;20062;-56
2020/12/22 04:08:59;;;;;;;154.68;88.35;;;8.20;99.90;;;;;;5082347;28;20046;-55
2020/12/22 04:12:03;;;;;;;221.52;93.90;;;8.30;99.90;;;;;;5095257;28;20038;-58
2020/12/22 04:15:07;;;;;;;162.20;84.72;;;8.30;99.90;;;;;;5082986;28;20062;-58
2020/12/22 04:18:11;;;;;;;523.05;103.80;;;8.40;99.90;;;;;;5099337;28;20521;-57
2020/12/22 04:21:15;;;;;;;329.50;99.95;;;8.30;99.90;;;;;;5095633;28;20047;-56
2020/12/22 04:24:19;;;;;;;144.13;85.25;;;8.20;99.90;;;;;;5100611;28;20055;-58
2020/12/22 04:27:23;;;;;;;136.90;82.03;;;8.30;99.90;;;;;;5085440;28;20038;-55
2020/12/22 04:30:27;;;;;;;152.68;83.30;;;8.40;99.90;;;;;;5082332;28;20509;-55
2020/12/22 04:33:31;;;;;;;193.80;87.28;;;8.40;99.90;;;;;;5094884;28;20035;-54
2020/12/22 04:36:35;;;;;;;128.60;79.90;;;8.40;99.90;;;;;;5095631;28;20062;-58
2020/12/22 04:39:39;;;;;;;122.82;78.30;;;8.40;99.90;;;;;;5078820;28;20058;-56
2020/12/22 04:42:43;;;;;;;252.30;89.78;;;8.40;99.90;;;;;;5077966;28;20406;-54
2020/12/22 04:45:50;;;;;;;571.33;107.60;;;8.30;99.90;;;;;;5103466;28;20047;-54
2020/12/22 04:48:56;;;;;;;401.27;101.50;;;8.10;99.90;;;;;;5102752;28;20047;-55
2020/12/22 04:52:00;;;;;;;1164.03;149.15;;;8.10;99.90;;;;;;5103349;28;20054;-58
2020/12/22 04:55:04;;;;;;;1170.28;158.52;;;8.00;99.90;;;;;;5101598;28;20055;-59
2020/12/22 04:58:10;;;;;;;1515.88;170.50;;;7.80;99.90;;;;;;5100127;28;20505;-55
2020/12/22 05:01:16;;;;;;;980.15;144.90;;;7.70;99.90;;;;;;5082540;28;20028;-55
2020/12/22 05:04:20;;;;;;;1223.97;167.30;;;7.60;99.90;;;;;;5094782;28;20046;-56
2020/12/22 05:07:24;;;;;;;415.02;116.78;;;7.50;99.90;;;;;;5095209;28;20044;-56
2020/12/22 05:10:28;;;;;;;188.25;98.03;;;7.50;99.90;;;;;;5095754;28;20067;-58
2020/12/22 05:13:32;;;;;;;186.45;101.13;;;7.60;99.90;;;;;;5102709;28;20043;-56
2020/12/22 05:16:37;;;;;;;395.63;116.78;;;7.70;99.90;;;;;;5087697;28;20405;-54
2020/12/22 05:19:43;;;;;;;237.63;90.88;;;7.90;99.90;;;;;;5107325;28;20042;-57
2020/12/22 05:22:47;;;;;;;818.83;142.70;;;8.00;99.90;;;;;;5105528;28;20042;-55
2020/12/22 05:25:52;;;;;;;179.57;95.07;;;7.70;99.90;;;;;;5102666;28;20043;-55
2020/12/22 05:28:56;;;;;;;326.67;106.38;;;7.70;99.90;;;;;;5078009;28;20051;-54
2020/12/22 05:32:03;;;;;;;533.47;122.25;;;7.80;99.90;;;;;;5093952;28;20036;-54
2020/12/22 05:35:07;;;;;;;519.20;117.97;;;7.70;99.90;;;;;;5102567;28;20039;-54
2020/12/22 05:38:12;;;;;;;1239.22;172.98;;;7.80;99.90;;;;;;5097386;28;20039;-58
2020/12/22 05:41:18;;;;;;;262.10;102.30;;;7.50;99.90;;;;;;5085805;28;20036;-55
2020/12/22 05:44:24;;;;;;;751.08;134.48;;;7.50;99.90;;;;;;5088050;28;20047;-55
2020/12/22 05:47:29;;;;;;;1077.28;165.27;;;7.60;99.90;;;;;;5098177;28;20050;-56
2020/12/22 05:50:34;;;;;;;251.68;110.20;;;7.50;99.90;;;;;;5097630;28;20399;-56
2020/12/22 05:53:42;;;;;;;854.45;147.35;;;7.60;99.90;;;;;;5098284;28;20047;-55
2020/12/22 05:56:46;;;;;;;388.33;125.85;;;7.60;99.90;;;;;;5097783;28;20517;-58
2020/12/22 05:59:51;;;;;;;224.57;92.65;;;7.70;99.90;;;;;;5085227;28;20516;-57
2020/12/22 06:03:01;;;;;;;520.75;115.90;;;7.80;99.90;;;;;;5080222;28;20047;-54
2020/12/22 06:06:07;;;;;;;289.15;102.05;;;7.80;99.90;;;;;;5093791;28;20063;-57
2020/12/22 06:09:12;;;;;;;149.90;86.05;;;7.80;99.90;;;;;;5087682;28;20047;-57
2020/12/22 06:12:19;;;;;;;433.27;97.43;;;7.90;99.90;;;;;;5096857;28;20039;-57
2020/12/22 06:15:24;;;;;;;494.08;109.20;;;8.00;99.90;;;;;;5094913;28;20035;-54
2020/12/22 06:18:29;;;;;;;636.92;110.28;;;8.00;99.90;;;;;;5080605;28;20050;-56
2020/12/22 06:21:33;;;;;;;616.58;117.25;;;7.90;99.90;;;;;;5096437;28;20062;-54
2020/12/22 06:24:37;;;;;;;210.40;82.70;;;7.80;99.90;;;;;;5089465;28;20039;-59
2020/12/22 06:27:41;;;;;;;477.63;98.88;;;7.80;99.90;;;;;;5094301;28;20509;-57
2020/12/22 06:30:45;;;;;;;170.52;79.60;;;7.90;99.90;;;;;;5100723;28;20047;-54
2020/12/22 06:33:53;;;;;;;297.90;84.15;;;7.90;99.90;;;;;;5088739;28;20126;-54
2020/12/22 06:37:00;;;;;;;503.73;105.00;;;7.80;99.90;;;;;;5081881;28;20040;-58
2020/12/22 06:40:06;;;;;;;424.15;99.38;;;7.70;99.90;;;;;;5102574;28;21434;-55
2020/12/22 06:43:11;;;;;;;617.55;132.15;;;7.60;99.90;;;;;;5086212;28;20363;-58
2020/12/22 06:46:33;;;;;;;214.20;86.07;;;7.60;99.90;;;;;;5105287;28;20050;-58
2020/12/22 06:49:48;;;;;;;275.83;91.88;;;7.60;99.90;;;;;;5090435;28;20043;-56
2020/12/22 06:52:53;;;;;;;382.13;96.80;;;7.70;99.90;;;;;;5090580;28;20054;-58
2020/12/22 06:55:57;;;;;;;316.38;101.07;;;7.70;99.90;;;;;;5093891;28;20436;-58
2020/12/22 06:59:01;;;;;;;1058.20;156.98;;;7.50;99.90;;;;;;5080234;28;20047;-58
2020/12/22 07:02:05;;;;;;;152.00;85.90;;;7.40;99.90;;;;;;5091971;28;20059;-55
2020/12/22 07:05:08;;;;;;;183.52;87.80;;;7.60;99.90;;;;;;5089634;28;20710;-54
2020/12/22 07:08:14;;;;;;;134.55;78.78;;;7.70;99.90;;;;;;5088995;28;20433;-56
2020/12/22 07:11:19;;;;;;;154.73;89.53;;;7.80;99.90;;;;;;5093068;28;20510;-58
2020/12/22 07:14:25;;;;;;;154.55;86.45;;;7.80;99.90;;;;;;5092446;28;20525;-54
2020/12/22 07:17:30;;;;;;;529.22;107.13;;;7.90;99.90;;;;;;5081445;28;20043;-56
2020/12/22 07:20:35;;;;;;;136.80;73.88;;;7.90;99.90;;;;;;5074355;28;20052;-53
2020/12/22 07:23:41;;;;;;;233.52;76.88;;;8.00;99.90;;;;;;5089890;28;20541;-53
2020/12/22 07:26:46;;;;;;;118.85;67.25;;;8.10;99.90;;;;;;5086693;28;20313;-55
2020/12/22 07:29:50;;;;;;;114.22;65.13;;;8.20;99.90;;;;;;5091781;28;20055;-56
2020/12/22 07:32:59;;;;;;;114.07;62.75;;;8.30;99.90;;;;;;5089924;28;20042;-53
2020/12/22 07:36:03;;;;;;;109.97;60.25;;;8.50;99.90;;;;;;5096317;28;20051;-54
2020/12/22 07:39:24;;;;;;;106.32;59.78;;;8.60;99.90;;;;;;5089738;28;20055;-57
2020/12/22 07:42:28;;;;;;;93.53;55.05;;;8.70;99.90;;;;;;5080702;28;20051;-53
2020/12/22 07:45:32;;;;;;;79.10;49.90;;;8.80;99.90;;;;;;5102568;28;20046;-57
2020/12/22 07:48:36;;;;;;;74.07;47.28;;;9.00;99.90;;;;;;5071746;28;20039;-55
2020/12/22 07:51:48;;;;;;;82.32;50.13;;;9.20;99.90;;;;;;5071079;28;20509;-53
2020/12/22 07:54:56;;;;;;;;;;;9.10;99.90;;;;;;5076140;28;20059;-56
2020/12/22 07:58:01;;;;;;;83.00;48.92;;;9.10;99.90;;;;;;5084572;28;19915;-56
2020/12/22 08:01:06;;;;;;;77.15;47.08;;;9.10;99.90;;;;;;5068901;28;20055;-58
2020/12/22 08:04:21;;;;;;;75.40;45.00;;;9.30;99.90;;;;;;5069422;28;20047;-56
2020/12/22 08:07:25;;;;;;;89.60;49.13;;;9.80;99.90;;;;;;5069415;28;20047;-58
2020/12/22 08:10:29;;;;;;;399.50;67.47;;;9.40;99.90;;;;;;5057119;28;20627;-54
2020/12/22 08:13:38;;;;;;;483.15;72.18;;;9.10;99.90;;;;;;5069322;28;20052;-58
2020/12/22 08:16:42;;;;;;;506.20;67.88;;;9.10;99.90;;;;;;5069147;28;20286;-56
2020/12/22 08:19:48;;;;;;;132.10;49.97;;;8.80;99.90;;;;;;5069123;28;20048;-55
2020/12/22 08:22:53;;;;;;;804.75;76.95;;;9.10;99.90;;;;;;5098797;28;20039;-55
2020/12/22 08:25:57;;;;;;;814.85;78.53;;;9.10;99.90;;;;;;5091505;28;20047;-57
2020/12/22 08:29:03;;;;;;;657.92;73.72;;;8.90;99.90;;;;;;5094559;28;20051;-59
2020/12/22 08:32:08;;;;;;;591.85;63.83;;;9.10;99.90;;;;;;5094439;28;20062;-56
2020/12/22 08:35:13;;;;;;;308.77;51.55;;;9.30;99.90;;;;;;5096212;28;20265;-54
2020/12/22 08:38:36;;;;;;;213.77;49.58;;;9.20;99.90;;;;;;5086974;28;20043;-55
2020/12/22 08:41:46;;;;;;;550.63;63.47;;;9.50;99.90;;;;;;5092233;28;20047;-56
2020/12/22 08:44:51;;;;;;;556.85;62.53;;;9.30;99.90;;;;;;5081544;28;20114;-58
2020/12/22 08:47:57;;;;;;;614.17;68.25;;;9.30;99.90;;;;;;5083565;28;20047;-54
2020/12/22 08:51:02;;;;;;;936.70;83.72;;;9.20;99.90;;;;;;5076003;28;20047;-56
2020/12/22 08:54:06;;;;;;;785.65;75.97;;;9.00;99.90;;;;;;5088237;28;20044;-57
2020/12/22 08:57:29;;;;;;;944.92;80.78;;;9.00;99.90;;;;;;5072693;28;20035;-55
2020/12/22 09:00:34;;;;;;;731.95;76.93;;;9.10;99.90;;;;;;5072432;28;20039;-54
2020/12/22 09:03:38;;;;;;;83.93;46.47;;;9.20;99.90;;;;;;5072471;28;20036;-54
2020/12/22 09:06:44;;;;;;;179.32;43.50;;;9.70;99.90;;;;;;5072499;28;20040;-57
2020/12/22 09:09:50;;;;;;;557.90;61.25;;;10.30;99.90;;;;;;5072786;28;20043;-54
2020/12/22 09:13:13;;;;;;;670.22;74.50;;;10.50;99.90;;;;;;5071800;28;20047;-57
2020/12/22 09:16:17;;;;;;;194.90;53.85;;;9.70;99.90;;;;;;5072023;28;20402;-58
2020/12/22 09:19:42;;;;;;;344.13;57.70;;;9.80;99.90;;;;;;5060072;28;20123;-57
2020/12/22 09:22:47;;;;;;;650.15;65.32;;;9.90;99.90;;;;;;5086615;28;20409;-58
2020/12/22 09:25:50;;;;;;;274.48;50.83;;;9.80;99.90;;;;;;5072281;28;20524;-54
2020/12/22 09:28:54;;;;;;;442.80;54.00;;;10.20;99.90;;;;;;5081764;28;20047;-57
2020/12/22 09:31:59;;;;;;;215.35;48.60;;;10.40;99.90;;;;;;5067967;28;20078;-55
2020/12/22 09:35:05;;;;;;;646.40;67.95;;;10.70;99.90;;;;;;5093336;28;20529;-58
2020/12/22 09:38:09;;;;;;;219.23;49.22;;;10.20;99.90;;;;;;5094950;28;20414;-56
2020/12/22 09:41:13;;;;;;;63.00;38.38;;;10.70;99.90;;;;;;5091089;28;20046;-53
2020/12/22 09:44:17;;;;;;;55.83;35.53;;;11.80;99.90;;;;;;5063169;28;20131;-57
2020/12/22 09:47:22;;;;;;;190.63;40.78;;;12.30;99.90;;;;;;5084840;28;20043;-54
2020/12/22 09:50:26;;;;;;;523.38;54.05;;;12.30;99.90;;;;;;5090728;28;20051;-54
2020/12/22 09:53:30;;;;;;;521.42;51.38;;;11.20;99.90;;;;;;5075993;28;20059;-56
2020/12/22 09:56:34;;;;;;;442.23;48.67;;;11.30;99.90;;;;;;5071813;28;20040;-58
2020/12/22 09:59:38;;;;;;;297.75;48.95;;;11.40;99.90;;;;;;5071617;28;20294;-57
2020/12/22 10:02:42;;;;;;;527.88;54.40;;;10.50;99.90;;;;;;5070193;28;20541;-57
2020/12/22 10:05:48;;;;;;;701.58;65.30;;;10.60;99.90;;;;;;5074579;28;20047;-56
2020/12/22 10:08:55;;;;;;;108.35;41.67;;;10.10;99.90;;;;;;5089456;28;20040;-57
2020/12/22 10:11:59;;;;;;;426.40;52.22;;;10.00;99.90;;;;;;5089491;28;20399;-56
2020/12/22 10:15:03;;;;;;;279.65;49.20;;;10.10;99.90;;;;;;5092070;28;20062;-55
2020/12/22 10:18:09;;;;;;;137.82;43.40;;;10.20;99.90;;;;;;5090871;28;20050;-54
2020/12/22 10:21:15;;;;;;;647.33;62.70;;;10.00;99.90;;;;;;5088193;28;20403;-53
2020/12/22 10:24:19;;;;;;;570.00;61.22;;;10.00;99.90;;;;;;5086368;28;20059;-56
2020/12/22 10:27:24;;;;;;;122.75;44.65;;;10.00;99.90;;;;;;5072985;28;20047;-55
2020/12/22 10:30:29;;;;;;;294.00;57.20;;;10.30;99.90;;;;;;5072741;28;20051;-57
2020/12/22 10:33:33;;;;;;;391.98;59.13;;;10.40;99.90;;;;;;5090892;28;20035;-55
2020/12/22 10:36:37;;;;;;;447.27;61.20;;;10.30;99.90;;;;;;5091137;28;20054;-56
2020/12/22 10:39:41;;;;;;;257.85;47.45;;;10.20;99.90;;;;;;5090967;28;20046;-59
2020/12/22 10:42:45;;;;;;;136.75;44.67;;;10.50;99.90;;;;;;5100301;28;20405;-56
2020/12/22 10:49:12;;;;;;;;;;;10.70;99.90;;;;;;5102215;28;20034;-55
2020/12/22 10:52:16;;;;;;;118.78;48.33;;;10.30;99.90;;;;;;5090462;28;19935;-58
2020/12/22 10:55:21;;;;;;;117.28;44.95;;;10.00;99.90;;;;;;5092405;28;20051;-55
2020/12/22 10:58:26;;;;;;;105.25;43.15;;;10.30;99.90;;;;;;5090933;28;20047;-59
2020/12/22 11:01:30;;;;;;;142.27;44.92;;;10.60;99.90;;;;;;5083068;28;20043;-54
2020/12/22 11:04:34;;;;;;;148.70;43.88;;;10.80;99.90;;;;;;5092365;28;20071;-58
2020/12/22 11:07:52;;;;;;;98.68;43.88;;;11.20;99.90;;;;;;5082288;28;20031;-54
2020/12/22 11:10:56;;;;;;;94.85;42.88;;;11.00;99.90;;;;;;5083947;28;20043;-57
2020/12/22 11:14:01;;;;;;;204.77;43.95;;;10.90;99.90;;;;;;5083411;28;20048;-57
2020/12/22 11:17:06;;;;;;;127.72;41.80;;;11.30;99.90;;;;;;5085858;28;20067;-54
2020/12/22 11:20:10;;;;;;;86.07;39.78;;;11.40;99.90;;;;;;5101722;28;20054;-57
2020/12/22 11:23:14;;;;;;;79.75;38.95;;;11.80;99.90;;;;;;5085387;28;20059;-55
2020/12/22 11:26:20;;;;;;;113.32;39.80;;;11.80;99.90;;;;;;5098199;28;20043;-54
2020/12/22 11:29:24;;;;;;;65.72;35.78;;;12.30;99.90;;;;;;5092947;28;20500;-58
2020/12/22 11:32:28;;;;;;;168.50;41.33;;;12.60;99.90;;;;;;5082780;28;20505;-54
2020/12/22 11:35:32;;;;;;;83.80;37.72;;;11.80;99.90;;;;;;5081092;28;20043;-54
2020/12/22 11:38:37;;;;;;;218.18;42.78;;;11.60;99.90;;;;;;5076510;28;20060;-56
2020/12/22 11:41:42;;;;;;;116.70;39.63;;;11.20;99.90;;;;;;5087104;28;20054;-57
2020/12/22 11:44:47;;;;;;;88.40;41.38;;;10.90;99.90;;;;;;5089706;28;20038;-56
2020/12/22 11:47:53;;;;;;;90.28;41.47;;;10.60;99.90;;;;;;5089970;28;20050;-54
2020/12/22 11:50:58;;;;;;;86.25;42.03;;;10.50;99.90;;;;;;5085698;28;20118;-52
2020/12/22 11:54:01;;;;;;;80.20;40.83;;;10.50;99.90;;;;;;5075791;28;20111;-56
2020/12/22 11:57:05;;;;;;;312.45;50.72;;;10.60;99.90;;;;;;5069913;28;20517;-55
2020/12/22 12:00:10;;;;;;;111.63;43.15;;;10.50;99.90;;;;;;5069660;28;20055;-57
2020/12/22 12:03:14;;;;;;;85.88;41.47;;;10.60;99.90;;;;;;5069844;28;20055;-58
2020/12/22 12:06:18;;;;;;;84.68;43.75;;;10.60;99.90;;;;;;5070273;28;20044;-57
2020/12/22 12:09:23;;;;;;;90.43;42.15;;;10.60;99.90;;;;;;5073551;28;20103;-57
2020/12/22 12:12:28;;;;;;;76.57;40.80;;;10.60;99.90;;;;;;5095534;28;20039;-58
2020/12/22 12:15:32;;;;;;;81.05;42.30;;;10.70;99.90;;;;;;5081123;28;20050;-54
2020/12/22 12:18:37;;;;;;;109.18;49.88;;;10.60;99.90;;;;;;5084766;28;20046;-58
2020/12/22 12:21:41;;;;;;;106.38;51.10;;;10.40;99.90;;;;;;5080743;28;20044;-54
2020/12/22 12:24:46;;;;;;;115.80;52.00;;;10.30;99.90;;;;;;5081667;28;20051;-58
2020/12/22 12:27:49;;;;;;;85.30;45.03;;;10.40;99.90;;;;;;5094216;28;20689;-58
2020/12/22 12:30:54;;;;;;;94.55;48.35;;;10.40;99.90;;;;;;5079677;28;20047;-55
2020/12/22 12:33:59;;;;;;;99.28;49.92;;;10.50;99.90;;;;;;5075375;28;20043;-55
2020/12/22 12:37:03;;;;;;;93.47;47.78;;;10.50;99.90;;;;;;5077798;28;20043;-54
2020/12/22 12:40:07;;;;;;;93.65;45.53;;;10.50;99.90;;;;;;5076076;28;20058;-54
2020/12/22 12:43:11;;;;;;;143.13;49.95;;;10.50;99.90;;;;;;5080408;28;20062;-55
2020/12/22 12:46:16;;;;;;;224.75;55.35;;;10.70;99.90;;;;;;5088141;28;20093;-57
2020/12/22 12:49:20;;;;;;;102.50;48.28;;;10.70;99.90;;;;;;5085358;28;20402;-57
2020/12/22 12:52:25;;;;;;;92.80;47.17;;;10.70;99.90;;;;;;5089115;28;20055;-55
2020/12/22 12:55:30;;;;;;;99.80;49.53;;;10.70;99.90;;;;;;5080056;28;20055;-56
2020/12/22 12:58:34;;;;;;;120.22;53.90;;;10.70;99.90;;;;;;5074269;28;20120;-56
2020/12/22 13:01:39;;;;;;;105.47;50.10;;;10.70;99.90;;;;;;5089408;28;20051;-58
2020/12/22 13:04:43;;;;;;;111.05;50.88;;;10.70;99.90;;;;;;5082944;28;20047;-56
2020/12/22 13:07:47;;;;;;;180.02;49.08;;;10.70;99.90;;;;;;5079372;28;20417;-58
2020/12/22 13:10:52;;;;;;;298.25;56.25;;;10.60;99.90;;;;;;5084286;28;20504;-58
2020/12/22 13:13:55;;;;;;;311.38;52.63;;;10.60;99.90;;;;;;5108429;28;20055;-58
2020/12/22 13:16:59;;;;;;;123.10;41.38;;;10.60;99.90;;;;;;5102959;28;20666;-55
2020/12/22 13:20:04;;;;;;;75.75;40.47;;;10.60;99.90;;;;;;5091820;28;20536;-57
2020/12/22 13:23:08;;;;;;;71.00;40.05;;;10.70;99.90;;;;;;5097494;28;20050;-54
2020/12/22 13:26:12;;;;;;;115.38;45.88;;;10.80;99.90;;;;;;5087294;28;20047;-58
2020/12/22 13:29:17;;;;;;;100.13;43.65;;;10.80;99.90;;;;;;5078137;28;20043;-57
2020/12/22 13:32:21;;;;;;;81.30;42.42;;;10.70;99.90;;;;;;5084813;28;20525;-54
2020/12/22 13:35:27;;;;;;;80.07;42.47;;;10.70;99.90;;;;;;5094157;28;20079;-59
2020/12/22 13:38:32;;;;;;;77.32;41.45;;;10.70;99.90;;;;;;5084077;28;20039;-51
2020/12/22 13:41:36;;;;;;;80.35;43.25;;;10.80;99.90;;;;;;5091632;28;20063;-53
2020/12/22 13:44:42;;;;;;;89.88;43.78;;;10.70;99.90;;;;;;5096675;28;20035;-56
2020/12/22 13:47:46;;;;;;;94.40;48.28;;;10.70;99.90;;;;;;5087265;28;20122;-57
2020/12/22 13:50:51;;;;;;;110.03;51.03;;;10.60;99.90;;;;;;5100647;28;20051;-57
2020/12/22 13:53:55;;;;;;;103.32;47.15;;;10.50;99.90;;;;;;5082204;28;20417;-54
2020/12/22 13:56:59;;;;;;;83.97;44.65;;;10.50;99.90;;;;;;5090917;28;20043;-57
2020/12/22 14:00:05;;;;;;;87.20;45.15;;;10.60;99.90;;;;;;5088756;28;20043;-59
2020/12/22 14:03:10;;;;;;;82.72;44.15;;;10.70;99.90;;;;;;5095464;28;20043;-57
2020/12/22 14:06:20;;;;;;;91.10;44.90;;;10.60;99.90;;;;;;5074928;28;20043;-56
2020/12/22 14:09:23;;;;;;;86.88;46.33;;;10.70;99.90;;;;;;5090254;28;20043;-58
2020/12/22 14:12:27;;;;;;;84.72;43.78;;;10.50;99.90;;;;;;5084245;28;20039;-58
2020/12/22 14:15:32;;;;;;;85.55;45.15;;;10.50;99.90;;;;;;5080364;28;20047;-58
2020/12/22 14:18:36;;;;;;;104.32;51.58;;;10.40;99.90;;;;;;5088659;28;20047;-57
2020/12/22 14:21:39;;;;;;;157.30;53.55;;;10.30;99.90;;;;;;5087625;28;20983;-54
2020/12/22 14:24:44;;;;;;;182.52;56.05;;;10.30;99.90;;;;;;5080861;28;20437;-57
2020/12/22 14:27:48;;;;;;;120.55;58.03;;;10.40;99.90;;;;;;5087420;28;20409;-57
2020/12/22 14:30:56;;;;;;;114.45;55.30;;;10.40;99.90;;;;;;5085134;28;20039;-54
2020/12/22 14:34:00;;;;;;;106.35;55.72;;;10.40;99.90;;;;;;5088071;28;20506;-57
2020/12/22 14:37:04;;;;;;;107.45;55.28;;;10.40;99.90;;;;;;5101504;28;20048;-57
2020/12/22 14:40:08;;;;;;;139.05;52.40;;;10.50;99.90;;;;;;5082114;28;20598;-55
2020/12/22 14:43:12;;;;;;;99.32;50.33;;;10.50;99.90;;;;;;5091406;28;20055;-57
2020/12/22 14:46:17;;;;;;;130.95;52.30;;;10.50;99.90;;;;;;5088338;28;20115;-58
2020/12/22 14:49:21;;;;;;;229.05;58.15;;;10.50;99.90;;;;;;5083398;28;20038;-55
2020/12/22 14:52:25;;;;;;;761.85;92.20;;;10.40;99.90;;;;;;5087295;28;20074;-58
2020/12/22 14:55:30;;;;;;;512.17;85.80;;;10.20;99.90;;;;;;5098365;28;20051;-58
2020/12/22 14:58:38;;;;;;;724.70;97.20;;;10.10;99.90;;;;;;5081911;28;20035;-54
2020/12/22 15:01:43;;;;;;;250.80;70.00;;;9.90;99.90;;;;;;5078356;28;20080;-53
2020/12/22 15:04:47;;;;;;;471.00;78.80;;;9.90;99.90;;;;;;5076687;28;20047;-56
2020/12/22 15:07:53;;;;;;;155.05;63.97;;;9.90;99.90;;;;;;5088234;28;20401;-57
2020/12/22 15:10:57;;;;;;;214.88;70.72;;;10.00;99.90;;;;;;5091284;28;20035;-57
2020/12/22 15:14:03;;;;;;;523.58;87.63;;;10.00;99.90;;;;;;5084683;28;20067;-55
2020/12/22 15:17:07;;;;;;;818.17;104.93;;;10.10;99.90;;;;;;5089026;28;20063;-56
2020/12/22 15:20:11;;;;;;;555.95;86.20;;;10.00;99.90;;;;;;5089999;28;20036;-55
2020/12/22 15:23:16;;;;;;;153.68;61.63;;;10.00;99.90;;;;;;5090133;28;20054;-57
2020/12/22 15:26:20;;;;;;;264.52;63.83;;;10.10;99.90;;;;;;5090036;28;20039;-59
2020/12/22 15:29:24;;;;;;;195.95;62.50;;;10.10;99.90;;;;;;5090766;28;20039;-55
2020/12/22 15:32:31;;;;;;;336.75;79.75;;;10.20;99.90;;;;;;5090242;28;20034;-58
2020/12/22 15:35:35;;;;;;;300.60;68.80;;;10.20;99.90;;;;;;5089259;28;20046;-55
2020/12/22 15:38:40;;;;;;;279.95;87.22;;;10.20;99.90;;;;;;5089662;28;20629;-59
2020/12/22 15:41:45;;;;;;;111.80;57.15;;;10.20;99.90;;;;;;5089447;28;20050;-58
2020/12/22 15:44:54;;;;;;;160.23;61.15;;;10.10;99.90;;;;;;5089739;28;20043;-54